This is the latest recevied weather packets stored in our database for station/object KN6CRX. If no packets are shown the sender has not sent any weather packets the latest 10 day(s).
| Time | Temp. | Humidity | Pressure | Rain* | Wind** | Luminosity | Snow |
|---|---|---|---|---|---|---|---|
| 1787611874 | 27.22° C | 30% | 1022 hPa | 0 mm | - | 57 W/m² | - |
| 1787611570 | 27.78° C | 31% | 1021.2 hPa | 0 mm | - | 61 W/m² | - |
| 1787611266 | 30° C | 27% | 1021.2 hPa | 0 mm | - | 64 W/m² | - |
| 1787610961 | 30° C | 27% | 1020.7 hPa | 0 mm | - | 85 W/m² | - |
| 1787610657 | 30.56° C | 26% | 1020.7 hPa | 0 mm | - | 86 W/m² | - |
| 1787610351 | 30.56° C | 27% | 1020.6 hPa | 0 mm | - | 125 W/m² | - |
| 1787610050 | 30.56° C | 25% | 1020.5 hPa | 0 mm | - | 148 W/m² | - |
| 1787609745 | 31.67° C | 24% | 1020.3 hPa | 0 mm | - | 133 W/m² | - |
| 1787609440 | 32.78° C | 23% | 1020.5 hPa | 0 mm | - | 131 W/m² | - |
| 1787609139 | 33.89° C | 23% | 1020.5 hPa | 0 mm | - | 518 W/m² | - |
| 1787608835 | 33.89° C | 23% | 1020.6 hPa | 0 mm | - | 719 W/m² | - |
| 1787608533 | 33.89° C | 23% | 1020.5 hPa | 0 mm | - | 743 W/m² | - |
| 1787608230 | 33.89° C | 24% | 1020.6 hPa | 0 mm | - | 770 W/m² | - |
| 1787607927 | 33.89° C | 25% | 1020.6 hPa | 0 mm | - | 783 W/m² | - |
| 1787607623 | 33.33° C | 25% | 1020.6 hPa | 0 mm | - | 756 W/m² | - |
| 1787607320 | 33.33° C | 24% | 1020.7 hPa | 0 mm | - | 798 W/m² | - |
| 1787607016 | 33.89° C | 23% | 1020.7 hPa | 0 mm | - | 723 W/m² | - |
| 1787606715 | 33.33° C | 25% | 1020.8 hPa | 0 mm | - | 767 W/m² | - |
| 1787606408 | 33.33° C | 26% | 1020.7 hPa | 0 mm | - | 820 W/m² | - |
| 1787606103 | 32.78° C | 27% | 1020.8 hPa | 0 mm | - | 824 W/m² | - |
| 1787605803 | 32.78° C | 25% | 1021.3 hPa | 0 mm | - | 796 W/m² | - |
| 1787605496 | 33.89° C | 26% | 1021.2 hPa | 0 mm | - | 835 W/m² | - |
| 1787605192 | 33.89° C | 28% | 1021.3 hPa | 0 mm | - | 837 W/m² | - |
| 1787604892 | 33.33° C | 28% | 1021.5 hPa | 0 mm | - | 841 W/m² | - |
| 1787604587 | 32.78° C | 28% | 1021.6 hPa | 0 mm | - | 833 W/m² | - |
* Rain latest hour (hover to see other rain measurements)
** Current wind speed in m/s (hover to see current wind gust speed)